sensor_id;sensor_type;location;lat;lon;timestamp;temperature;humidity
75457;SHT31;64036;48.266;14.192;2022-11-02T00:00:54;12.07;87.85
75457;SHT31;64036;48.266;14.192;2022-11-02T00:03:21;12.07;87.82
75457;SHT31;64036;48.266;14.192;2022-11-02T00:05:47;12.07;87.83
75457;SHT31;64036;48.266;14.192;2022-11-02T00:08:12;12.07;87.81
75457;SHT31;64036;48.266;14.192;2022-11-02T00:10:38;12.08;87.86
75457;SHT31;64036;48.266;14.192;2022-11-02T00:13:04;12.08;87.82
75457;SHT31;64036;48.266;14.192;2022-11-02T00:15:30;12.06;87.81
75457;SHT31;64036;48.266;14.192;2022-11-02T00:18:00;12.08;87.90
75457;SHT31;64036;48.266;14.192;2022-11-02T00:20:29;12.09;87.90
75457;SHT31;64036;48.266;14.192;2022-11-02T00:22:56;12.09;87.90
75457;SHT31;64036;48.266;14.192;2022-11-02T00:25:24;12.11;87.88
75457;SHT31;64036;48.266;14.192;2022-11-02T00:27:51;12.12;87.84
75457;SHT31;64036;48.266;14.192;2022-11-02T00:30:17;12.14;87.89
75457;SHT31;64036;48.266;14.192;2022-11-02T00:32:42;12.14;87.89
75457;SHT31;64036;48.266;14.192;2022-11-02T00:35:08;12.15;87.81
75457;SHT31;64036;48.266;14.192;2022-11-02T00:37:34;12.16;87.81
75457;SHT31;64036;48.266;14.192;2022-11-02T00:40:01;12.17;87.81
75457;SHT31;64036;48.266;14.192;2022-11-02T00:42:27;12.18;87.76
75457;SHT31;64036;48.266;14.192;2022-11-02T00:44:52;12.15;87.83
75457;SHT31;64036;48.266;14.192;2022-11-02T00:47:18;12.16;87.90
75457;SHT31;64036;48.266;14.192;2022-11-02T00:49:43;12.17;87.87
75457;SHT31;64036;48.266;14.192;2022-11-02T00:52:09;12.18;87.83
75457;SHT31;64036;48.266;14.192;2022-11-02T00:54:35;12.19;87.86
75457;SHT31;64036;48.266;14.192;2022-11-02T00:57:00;12.19;87.76
75457;SHT31;64036;48.266;14.192;2022-11-02T00:59:26;12.19;87.81
75457;SHT31;64036;48.266;14.192;2022-11-02T01:01:52;12.21;87.70
75457;SHT31;64036;48.266;14.192;2022-11-02T01:04:17;12.18;87.69
75457;SHT31;64036;48.266;14.192;2022-11-02T01:06:43;12.17;87.73
75457;SHT31;64036;48.266;14.192;2022-11-02T01:09:10;12.20;87.76
75457;SHT31;64036;48.266;14.192;2022-11-02T01:11:38;12.23;87.70
75457;SHT31;64036;48.266;14.192;2022-11-02T01:14:04;12.25;87.68
75457;SHT31;64036;48.266;14.192;2022-11-02T01:16:30;12.27;87.61
75457;SHT31;64036;48.266;14.192;2022-11-02T01:18:56;12.27;87.53
75457;SHT31;64036;48.266;14.192;2022-11-02T01:21:22;12.26;87.55
75457;SHT31;64036;48.266;14.192;2022-11-02T01:23:49;12.25;87.57
75457;SHT31;64036;48.266;14.192;2022-11-02T01:26:15;12.25;87.60
75457;SHT31;64036;48.266;14.192;2022-11-02T01:28:41;12.25;87.56
75457;SHT31;64036;48.266;14.192;2022-11-02T01:31:07;12.25;87.50
75457;SHT31;64036;48.266;14.192;2022-11-02T01:33:34;12.23;87.46
75457;SHT31;64036;48.266;14.192;2022-11-02T01:36:03;12.20;87.48
75457;SHT31;64036;48.266;14.192;2022-11-02T01:38:31;12.18;87.51
75457;SHT31;64036;48.266;14.192;2022-11-02T01:40:57;12.15;87.53
75457;SHT31;64036;48.266;14.192;2022-11-02T01:43:25;12.11;87.50
75457;SHT31;64036;48.266;14.192;2022-11-02T01:48:35;12.02;87.42
75457;SHT31;64036;48.266;14.192;2022-11-02T01:51:04;11.94;87.43
75457;SHT31;64036;48.266;14.192;2022-11-02T01:53:35;11.88;87.46
75457;SHT31;64036;48.266;14.192;2022-11-02T01:56:04;11.81;87.38
75457;SHT31;64036;48.266;14.192;2022-11-02T01:58:31;11.75;87.46
75457;SHT31;64036;48.266;14.192;2022-11-02T02:00:59;11.73;87.53
75457;SHT31;64036;48.266;14.192;2022-11-02T02:03:25;11.70;87.52
75457;SHT31;64036;48.266;14.192;2022-11-02T02:06:00;11.66;87.67
75457;SHT31;64036;48.266;14.192;2022-11-02T02:08:33;11.60;87.76
75457;SHT31;64036;48.266;14.192;2022-11-02T02:11:19;11.54;87.98
75457;SHT31;64036;48.266;14.192;2022-11-02T02:22:53;11.37;88.60
75457;SHT31;64036;48.266;14.192;2022-11-02T02:25:39;11.34;88.62
75457;SHT31;64036;48.266;14.192;2022-11-02T02:28:30;11.32;88.70
75457;SHT31;64036;48.266;14.192;2022-11-02T02:36:49;11.29;88.63
75457;SHT31;64036;48.266;14.192;2022-11-02T02:42:32;11.28;88.47
75457;SHT31;64036;48.266;14.192;2022-11-02T02:48:00;11.20;88.32
75457;SHT31;64036;48.266;14.192;2022-11-02T02:50:33;11.18;88.32
75457;SHT31;64036;48.266;14.192;2022-11-02T02:53:06;11.17;88.37
75457;SHT31;64036;48.266;14.192;2022-11-02T02:55:34;11.16;88.38
75457;SHT31;64036;48.266;14.192;2022-11-02T02:58:07;11.14;88.25
75457;SHT31;64036;48.266;14.192;2022-11-02T03:00:41;11.06;88.22
75457;SHT31;64036;48.266;14.192;2022-11-02T03:03:09;11.03;88.34
75457;SHT31;64036;48.266;14.192;2022-11-02T03:05:42;11.03;88.19
75457;SHT31;64036;48.266;14.192;2022-11-02T03:08:11;10.98;88.02
75457;SHT31;64036;48.266;14.192;2022-11-02T03:10:41;10.94;87.89
75457;SHT31;64036;48.266;14.192;2022-11-02T03:13:54;10.86;87.72
75457;SHT31;64036;48.266;14.192;2022-11-02T03:20:07;10.73;87.85
75457;SHT31;64036;48.266;14.192;2022-11-02T03:26:01;10.65;87.77
75457;SHT31;64036;48.266;14.192;2022-11-02T03:34:34;10.49;87.98
75457;SHT31;64036;48.266;14.192;2022-11-02T03:39:57;10.43;88.01
75457;SHT31;64036;48.266;14.192;2022-11-02T03:42:37;10.40;87.99
75457;SHT31;64036;48.266;14.192;2022-11-02T03:45:09;10.40;88.01
75457;SHT31;64036;48.266;14.192;2022-11-02T03:47:44;10.43;87.93
75457;SHT31;64036;48.266;14.192;2022-11-02T03:50:15;10.42;87.94
75457;SHT31;64036;48.266;14.192;2022-11-02T03:52:45;10.43;88.00
75457;SHT31;64036;48.266;14.192;2022-11-02T03:55:15;10.44;88.00
75457;SHT31;64036;48.266;14.192;2022-11-02T03:57:45;10.46;87.94
75457;SHT31;64036;48.266;14.192;2022-11-02T04:00:15;10.46;87.96
75457;SHT31;64036;48.266;14.192;2022-11-02T04:02:48;10.47;88.00
75457;SHT31;64036;48.266;14.192;2022-11-02T04:05:18;10.48;88.08
75457;SHT31;64036;48.266;14.192;2022-11-02T04:07:45;10.50;88.14
75457;SHT31;64036;48.266;14.192;2022-11-02T04:10:33;10.51;88.25
75457;SHT31;64036;48.266;14.192;2022-11-02T04:12:58;10.50;88.37
75457;SHT31;64036;48.266;14.192;2022-11-02T04:15:43;10.49;88.41
75457;SHT31;64036;48.266;14.192;2022-11-02T04:18:08;10.48;88.47
75457;SHT31;64036;48.266;14.192;2022-11-02T04:20:52;10.48;88.52
75457;SHT31;64036;48.266;14.192;2022-11-02T04:23:18;10.47;88.59
75457;SHT31;64036;48.266;14.192;2022-11-02T04:26:03;10.45;88.74
75457;SHT31;64036;48.266;14.192;2022-11-02T04:28:29;10.43;88.83
75457;SHT31;64036;48.266;14.192;2022-11-02T04:30:58;10.45;88.97
75457;SHT31;64036;48.266;14.192;2022-11-02T04:33:25;10.48;88.99
75457;SHT31;64036;48.266;14.192;2022-11-02T04:36:00;10.50;89.00
75457;SHT31;64036;48.266;14.192;2022-11-02T04:38:28;10.52;89.05
75457;SHT31;64036;48.266;14.192;2022-11-02T04:41:04;10.52;89.08
75457;SHT31;64036;48.266;14.192;2022-11-02T04:43:53;10.54;89.11
75457;SHT31;64036;48.266;14.192;2022-11-02T04:46:20;10.53;89.17
75457;SHT31;64036;48.266;14.192;2022-11-02T04:48:47;10.54;89.27
75457;SHT31;64036;48.266;14.192;2022-11-02T04:51:13;10.57;89.30
75457;SHT31;64036;48.266;14.192;2022-11-02T04:53:39;10.58;89.34
75457;SHT31;64036;48.266;14.192;2022-11-02T04:56:05;10.61;89.36
75457;SHT31;64036;48.266;14.192;2022-11-02T04:58:31;10.63;89.40
75457;SHT31;64036;48.266;14.192;2022-11-02T05:00:56;10.67;89.40
75457;SHT31;64036;48.266;14.192;2022-11-02T05:03:22;10.68;89.36
75457;SHT31;64036;48.266;14.192;2022-11-02T05:05:52;10.68;89.40
75457;SHT31;64036;48.266;14.192;2022-11-02T05:08:19;10.69;89.42
75457;SHT31;64036;48.266;14.192;2022-11-02T05:10:45;10.72;89.40
75457;SHT31;64036;48.266;14.192;2022-11-02T05:13:11;10.74;89.41
75457;SHT31;64036;48.266;14.192;2022-11-02T05:15:39;10.78;89.41
75457;SHT31;64036;48.266;14.192;2022-11-02T05:18:05;10.79;89.35
75457;SHT31;64036;48.266;14.192;2022-11-02T05:20:31;10.81;89.40
75457;SHT31;64036;48.266;14.192;2022-11-02T05:22:57;10.83;89.37
75457;SHT31;64036;48.266;14.192;2022-11-02T05:25:22;10.84;89.33
75457;SHT31;64036;48.266;14.192;2022-11-02T05:27:48;10.85;89.34
75457;SHT31;64036;48.266;14.192;2022-11-02T05:30:14;10.82;89.38
75457;SHT31;64036;48.266;14.192;2022-11-02T05:32:39;10.86;89.49
75457;SHT31;64036;48.266;14.192;2022-11-02T05:35:05;10.89;89.47
75457;SHT31;64036;48.266;14.192;2022-11-02T05:37:31;10.90;89.41
75457;SHT31;64036;48.266;14.192;2022-11-02T05:39:56;10.91;89.38
75457;SHT31;64036;48.266;14.192;2022-11-02T05:42:22;10.90;89.30
75457;SHT31;64036;48.266;14.192;2022-11-02T05:44:50;10.91;89.28
75457;SHT31;64036;48.266;14.192;2022-11-02T05:47:15;10.92;89.22
75457;SHT31;64036;48.266;14.192;2022-11-02T05:49:41;10.94;89.21
75457;SHT31;64036;48.266;14.192;2022-11-02T05:52:06;11.03;89.15
75457;SHT31;64036;48.266;14.192;2022-11-02T05:54:32;11.08;88.91
75457;SHT31;64036;48.266;14.192;2022-11-02T05:56:57;11.11;88.79
75457;SHT31;64036;48.266;14.192;2022-11-02T05:59:23;11.07;88.65
75457;SHT31;64036;48.266;14.192;2022-11-02T06:01:48;10.96;88.73
75457;SHT31;64036;48.266;14.192;2022-11-02T06:04:14;10.95;88.81
75457;SHT31;64036;48.266;14.192;2022-11-02T06:06:39;10.91;88.84
75457;SHT31;64036;48.266;14.192;2022-11-02T06:09:05;10.90;88.87
75457;SHT31;64036;48.266;14.192;2022-11-02T06:11:31;10.87;88.91
75457;SHT31;64036;48.266;14.192;2022-11-02T06:13:56;10.90;88.90
75457;SHT31;64036;48.266;14.192;2022-11-02T06:16:22;10.89;88.91
75457;SHT31;64036;48.266;14.192;2022-11-02T06:18:47;10.91;88.98
75457;SHT31;64036;48.266;14.192;2022-11-02T06:21:13;10.93;88.91
75457;SHT31;64036;48.266;14.192;2022-11-02T06:23:39;10.97;88.89
75457;SHT31;64036;48.266;14.192;2022-11-02T06:26:08;10.98;88.86
75457;SHT31;64036;48.266;14.192;2022-11-02T06:28:34;11.00;88.92
75457;SHT31;64036;48.266;14.192;2022-11-02T06:31:00;11.03;88.91
75457;SHT31;64036;48.266;14.192;2022-11-02T06:33:29;11.03;88.86
75457;SHT31;64036;48.266;14.192;2022-11-02T06:35:55;11.02;88.85
75457;SHT31;64036;48.266;14.192;2022-11-02T06:38:21;11.08;89.03
75457;SHT31;64036;48.266;14.192;2022-11-02T06:43:21;11.22;88.75
75457;SHT31;64036;48.266;14.192;2022-11-02T06:45:47;11.37;88.72
75457;SHT31;64036;48.266;14.192;2022-11-02T06:48:13;11.48;88.56
75457;SHT31;64036;48.266;14.192;2022-11-02T06:50:38;11.51;88.39
75457;SHT31;64036;48.266;14.192;2022-11-02T06:53:04;11.49;88.29
75457;SHT31;64036;48.266;14.192;2022-11-02T06:55:30;11.48;88.21
75457;SHT31;64036;48.266;14.192;2022-11-02T06:57:55;11.47;88.22
75457;SHT31;64036;48.266;14.192;2022-11-02T07:00:21;11.50;88.27
75457;SHT31;64036;48.266;14.192;2022-11-02T07:02:57;11.51;88.28
75457;SHT31;64036;48.266;14.192;2022-11-02T07:05:26;11.50;88.18
75457;SHT31;64036;48.266;14.192;2022-11-02T07:07:52;11.51;88.19
75457;SHT31;64036;48.266;14.192;2022-11-02T07:10:18;11.54;88.04
75457;SHT31;64036;48.266;14.192;2022-11-02T07:12:43;11.56;88.02
75457;SHT31;64036;48.266;14.192;2022-11-02T07:15:09;11.61;87.99
75457;SHT31;64036;48.266;14.192;2022-11-02T07:17:37;11.68;87.92
75457;SHT31;64036;48.266;14.192;2022-11-02T07:20:05;11.75;87.85
75457;SHT31;64036;48.266;14.192;2022-11-02T07:22:34;11.86;87.75
75457;SHT31;64036;48.266;14.192;2022-11-02T07:25:00;11.95;87.66
75457;SHT31;64036;48.266;14.192;2022-11-02T07:27:26;12.03;87.42
75457;SHT31;64036;48.266;14.192;2022-11-02T07:29:51;12.19;87.42
75457;SHT31;64036;48.266;14.192;2022-11-02T07:32:17;12.36;87.09
75457;SHT31;64036;48.266;14.192;2022-11-02T07:34:42;12.50;86.80
75457;SHT31;64036;48.266;14.192;2022-11-02T07:37:08;12.64;86.56
75457;SHT31;64036;48.266;14.192;2022-11-02T07:39:33;12.71;86.21
75457;SHT31;64036;48.266;14.192;2022-11-02T07:41:59;12.84;86.19
75457;SHT31;64036;48.266;14.192;2022-11-02T07:44:25;12.99;86.05
75457;SHT31;64036;48.266;14.192;2022-11-02T07:46:50;13.14;85.81
75457;SHT31;64036;48.266;14.192;2022-11-02T07:49:16;13.26;85.67
75457;SHT31;64036;48.266;14.192;2022-11-02T07:51:42;13.25;85.24
75457;SHT31;64036;48.266;14.192;2022-11-02T07:54:07;13.10;85.29
75457;SHT31;64036;48.266;14.192;2022-11-02T07:56:33;13.01;85.25
75457;SHT31;64036;48.266;14.192;2022-11-02T07:58:59;12.96;85.36
75457;SHT31;64036;48.266;14.192;2022-11-02T08:01:24;13.10;85.66
75457;SHT31;64036;48.266;14.192;2022-11-02T08:03:50;13.41;85.46
75457;SHT31;64036;48.266;14.192;2022-11-02T08:06:15;13.54;85.00
75457;SHT31;64036;48.266;14.192;2022-11-02T08:08:41;13.93;85.02
75457;SHT31;64036;48.266;14.192;2022-11-02T08:11:07;14.36;84.23
75457;SHT31;64036;48.266;14.192;2022-11-02T08:13:33;14.78;83.94
75457;SHT31;64036;48.266;14.192;2022-11-02T08:16:01;15.15;83.49
75457;SHT31;64036;48.266;14.192;2022-11-02T08:18:28;15.50;82.69
75457;SHT31;64036;48.266;14.192;2022-11-02T08:20:54;15.88;81.95
75457;SHT31;64036;48.266;14.192;2022-11-02T08:23:22;16.48;80.67
75457;SHT31;64036;48.266;14.192;2022-11-02T08:25:49;16.81;79.90
75457;SHT31;64036;48.266;14.192;2022-11-02T08:28:21;17.00;78.78
75457;SHT31;64036;48.266;14.192;2022-11-02T08:30:50;17.31;77.59
75457;SHT31;64036;48.266;14.192;2022-11-02T08:33:17;17.59;76.06
75457;SHT31;64036;48.266;14.192;2022-11-02T08:35:45;17.68;75.71
75457;SHT31;64036;48.266;14.192;2022-11-02T08:38:12;18.10;75.26
75457;SHT31;64036;48.266;14.192;2022-11-02T08:40:38;18.71;74.44
75457;SHT31;64036;48.266;14.192;2022-11-02T08:43:05;19.11;73.46
75457;SHT31;64036;48.266;14.192;2022-11-02T08:45:34;19.43;71.94
75457;SHT31;64036;48.266;14.192;2022-11-02T08:48:02;19.80;69.86
75457;SHT31;64036;48.266;14.192;2022-11-02T08:50:29;20.15;69.24
75457;SHT31;64036;48.266;14.192;2022-11-02T08:52:54;20.19;67.91
75457;SHT31;64036;48.266;14.192;2022-11-02T08:55:20;20.04;67.69
75457;SHT31;64036;48.266;14.192;2022-11-02T08:57:49;20.01;67.57
75457;SHT31;64036;48.266;14.192;2022-11-02T09:00:18;20.17;67.56
75457;SHT31;64036;48.266;14.192;2022-11-02T09:05:36;19.98;66.91
75457;SHT31;64036;48.266;14.192;2022-11-02T09:08:05;19.90;66.77
75457;SHT31;64036;48.266;14.192;2022-11-02T09:10:35;20.02;66.35
75457;SHT31;64036;48.266;14.192;2022-11-02T09:13:03;19.88;66.12
75457;SHT31;64036;48.266;14.192;2022-11-02T09:15:31;19.55;66.48
75457;SHT31;64036;48.266;14.192;2022-11-02T09:17:59;19.50;66.66
75457;SHT31;64036;48.266;14.192;2022-11-02T09:20:25;19.27;66.66
75457;SHT31;64036;48.266;14.192;2022-11-02T09:22:50;19.20;66.97
75457;SHT31;64036;48.266;14.192;2022-11-02T09:25:19;19.14;66.68
75457;SHT31;64036;48.266;14.192;2022-11-02T09:27:45;19.25;66.51
75457;SHT31;64036;48.266;14.192;2022-11-02T09:30:10;19.44;66.50
75457;SHT31;64036;48.266;14.192;2022-11-02T09:32:37;19.33;66.00
75457;SHT31;64036;48.266;14.192;2022-11-02T09:35:04;19.15;66.05
75457;SHT31;64036;48.266;14.192;2022-11-02T09:37:34;19.23;65.80
75457;SHT31;64036;48.266;14.192;2022-11-02T09:40:00;19.46;65.67
75457;SHT31;64036;48.266;14.192;2022-11-02T09:45:17;19.52;65.55
75457;SHT31;64036;48.266;14.192;2022-11-02T09:48:19;19.58;65.55
75457;SHT31;64036;48.266;14.192;2022-11-02T09:56:29;19.10;66.30
75457;SHT31;64036;48.266;14.192;2022-11-02T09:58:57;19.44;66.07
75457;SHT31;64036;48.266;14.192;2022-11-02T10:07:25;20.05;65.31
75457;SHT31;64036;48.266;14.192;2022-11-02T10:09:59;20.29;64.38
75457;SHT31;64036;48.266;14.192;2022-11-02T10:13:20;20.34;63.10
75457;SHT31;64036;48.266;14.192;2022-11-02T10:15:54;20.42;63.85
75457;SHT31;64036;48.266;14.192;2022-11-02T10:18:30;20.72;62.76
75457;SHT31;64036;48.266;14.192;2022-11-02T10:21:00;20.95;62.33
75457;SHT31;64036;48.266;14.192;2022-11-02T10:23:39;21.00;62.46
75457;SHT31;64036;48.266;14.192;2022-11-02T10:26:27;21.25;62.30
75457;SHT31;64036;48.266;14.192;2022-11-02T10:28:58;21.38;61.07
75457;SHT31;64036;48.266;14.192;2022-11-02T10:31:36;21.30;61.15
75457;SHT31;64036;48.266;14.192;2022-11-02T10:40:17;21.42;60.84
75457;SHT31;64036;48.266;14.192;2022-11-02T10:51:30;21.78;59.71
75457;SHT31;64036;48.266;14.192;2022-11-02T10:53:56;21.65;59.12
75457;SHT31;64036;48.266;14.192;2022-11-02T10:56:23;21.51;57.72
75457;SHT31;64036;48.266;14.192;2022-11-02T10:58:59;21.27;58.32
75457;SHT31;64036;48.266;14.192;2022-11-02T11:01:33;21.16;59.16
75457;SHT31;64036;48.266;14.192;2022-11-02T11:03:59;21.15;59.88
75457;SHT31;64036;48.266;14.192;2022-11-02T11:06:38;21.09;59.18
75457;SHT31;64036;48.266;14.192;2022-11-02T11:09:27;20.99;59.51
75457;SHT31;64036;48.266;14.192;2022-11-02T11:11:55;20.79;59.08
75457;SHT31;64036;48.266;14.192;2022-11-02T11:14:22;20.78;59.38
75457;SHT31;64036;48.266;14.192;2022-11-02T11:16:54;20.84;59.06
75457;SHT31;64036;48.266;14.192;2022-11-02T11:19:27;20.95;59.42
75457;SHT31;64036;48.266;14.192;2022-11-02T11:21:58;20.98;59.82
75457;SHT31;64036;48.266;14.192;2022-11-02T11:27:02;21.02;58.22
75457;SHT31;64036;48.266;14.192;2022-11-02T11:29:37;20.67;58.53
75457;SHT31;64036;48.266;14.192;2022-11-02T11:32:45;20.26;57.49
75457;SHT31;64036;48.266;14.192;2022-11-02T11:35:02;19.83;57.55
75457;SHT31;64036;48.266;14.192;2022-11-02T11:37:31;19.68;58.33
75457;SHT31;64036;48.266;14.192;2022-11-02T11:39:59;19.68;59.13
75457;SHT31;64036;48.266;14.192;2022-11-02T11:42:31;19.85;59.23
75457;SHT31;64036;48.266;14.192;2022-11-02T11:47:36;20.00;57.37
75457;SHT31;64036;48.266;14.192;2022-11-02T11:50:05;19.99;57.30
75457;SHT31;64036;48.266;14.192;2022-11-02T11:52:44;19.98;56.93
75457;SHT31;64036;48.266;14.192;2022-11-02T11:55:20;19.95;56.48
75457;SHT31;64036;48.266;14.192;2022-11-02T11:58:10;19.98;56.87
75457;SHT31;64036;48.266;14.192;2022-11-02T12:03:56;19.72;56.01
75457;SHT31;64036;48.266;14.192;2022-11-02T12:06:34;19.63;55.21
75457;SHT31;64036;48.266;14.192;2022-11-02T12:15:26;18.72;55.96
75457;SHT31;64036;48.266;14.192;2022-11-02T12:18:30;18.74;55.98
75457;SHT31;64036;48.266;14.192;2022-11-02T12:23:47;18.88;54.71
75457;SHT31;64036;48.266;14.192;2022-11-02T12:52:12;18.76;54.54
75457;SHT31;64036;48.266;14.192;2022-11-02T12:54:52;18.81;55.21
75457;SHT31;64036;48.266;14.192;2022-11-02T12:57:22;18.85;55.76
75457;SHT31;64036;48.266;14.192;2022-11-02T13:00:03;18.87;55.75
75457;SHT31;64036;48.266;14.192;2022-11-02T13:02:56;18.82;55.42
75457;SHT31;64036;48.266;14.192;2022-11-02T13:08:51;18.52;54.92
75457;SHT31;64036;48.266;14.192;2022-11-02T13:11:36;18.33;54.99
75457;SHT31;64036;48.266;14.192;2022-11-02T13:14:13;18.17;55.46
75457;SHT31;64036;48.266;14.192;2022-11-02T13:19:17;17.96;56.10
75457;SHT31;64036;48.266;14.192;2022-11-02T13:21:52;17.84;56.28
75457;SHT31;64036;48.266;14.192;2022-11-02T13:24:26;17.80;56.76
75457;SHT31;64036;48.266;14.192;2022-11-02T13:26:59;17.72;56.38
75457;SHT31;64036;48.266;14.192;2022-11-02T13:29:31;17.69;56.81
75457;SHT31;64036;48.266;14.192;2022-11-02T13:34:48;17.65;57.16
75457;SHT31;64036;48.266;14.192;2022-11-02T13:37:38;17.61;57.03
75457;SHT31;64036;48.266;14.192;2022-11-02T13:40:07;17.60;57.57
75457;SHT31;64036;48.266;14.192;2022-11-02T13:43:32;17.57;57.86
75457;SHT31;64036;48.266;14.192;2022-11-02T13:51:05;17.48;58.24
75457;SHT31;64036;48.266;14.192;2022-11-02T13:53:44;17.43;58.35
75457;SHT31;64036;48.266;14.192;2022-11-02T13:56:24;17.36;58.84
75457;SHT31;64036;48.266;14.192;2022-11-02T13:58:53;17.31;58.89
75457;SHT31;64036;48.266;14.192;2022-11-02T14:01:23;17.23;58.23
75457;SHT31;64036;48.266;14.192;2022-11-02T14:03:52;17.14;58.29
75457;SHT31;64036;48.266;14.192;2022-11-02T14:06:27;17.07;58.58
75457;SHT31;64036;48.266;14.192;2022-11-02T14:09:07;17.04;58.75
75457;SHT31;64036;48.266;14.192;2022-11-02T14:14:14;16.96;59.30
75457;SHT31;64036;48.266;14.192;2022-11-02T14:21:41;16.80;59.42
75457;SHT31;64036;48.266;14.192;2022-11-02T14:27:40;16.71;59.63
75457;SHT31;64036;48.266;14.192;2022-11-02T14:29:49;16.67;59.59
75457;SHT31;64036;48.266;14.192;2022-11-02T14:35:09;16.59;59.66
75457;SHT31;64036;48.266;14.192;2022-11-02T14:47:25;16.31;60.56
75457;SHT31;64036;48.266;14.192;2022-11-02T14:52:31;16.21;61.12
75457;SHT31;64036;48.266;14.192;2022-11-02T14:55:18;16.17;61.17
75457;SHT31;64036;48.266;14.192;2022-11-02T14:57:53;16.09;61.42
75457;SHT31;64036;48.266;14.192;2022-11-02T15:00:26;16.01;61.56
75457;SHT31;64036;48.266;14.192;2022-11-02T15:02:58;15.91;61.85
75457;SHT31;64036;48.266;14.192;2022-11-02T15:07:54;15.82;62.41
75457;SHT31;64036;48.266;14.192;2022-11-02T15:26:23;15.21;63.82
75457;SHT31;64036;48.266;14.192;2022-11-02T15:28:56;15.15;63.72
75457;SHT31;64036;48.266;14.192;2022-11-02T15:31:26;15.07;63.88
75457;SHT31;64036;48.266;14.192;2022-11-02T15:33:54;14.95;64.05
75457;SHT31;64036;48.266;14.192;2022-11-02T15:36:30;14.88;64.22
75457;SHT31;64036;48.266;14.192;2022-11-02T15:39:01;14.79;64.55
75457;SHT31;64036;48.266;14.192;2022-11-02T15:44:33;14.61;65.02
75457;SHT31;64036;48.266;14.192;2022-11-02T15:47:37;14.49;65.34
75457;SHT31;64036;48.266;14.192;2022-11-02T15:50:22;14.36;65.62
75457;SHT31;64036;48.266;14.192;2022-11-02T16:01:44;14.05;65.98
75457;SHT31;64036;48.266;14.192;2022-11-02T16:04:17;14.01;65.88
75457;SHT31;64036;48.266;14.192;2022-11-02T16:06:45;13.96;65.98
75457;SHT31;64036;48.266;14.192;2022-11-02T16:14:53;13.81;66.51
75457;SHT31;64036;48.266;14.192;2022-11-02T16:17:39;13.77;66.79
75457;SHT31;64036;48.266;14.192;2022-11-02T16:23:00;13.71;66.85
75457;SHT31;64036;48.266;14.192;2022-11-02T16:25:39;13.66;66.93
75457;SHT31;64036;48.266;14.192;2022-11-02T16:28:42;13.63;67.01
75457;SHT31;64036;48.266;14.192;2022-11-02T16:36:22;13.53;67.33
75457;SHT31;64036;48.266;14.192;2022-11-02T16:41:27;13.49;67.31
75457;SHT31;64036;48.266;14.192;2022-11-02T16:43:55;13.47;67.35
75457;SHT31;64036;48.266;14.192;2022-11-02T16:46:38;13.45;67.45
75457;SHT31;64036;48.266;14.192;2022-11-02T16:51:55;13.36;67.63
75457;SHT31;64036;48.266;14.192;2022-11-02T16:54:28;13.33;68.19
75457;SHT31;64036;48.266;14.192;2022-11-02T17:00:00;13.26;68.35
75457;SHT31;64036;48.266;14.192;2022-11-02T17:02:37;13.22;68.42
75457;SHT31;64036;48.266;14.192;2022-11-02T17:05:16;13.17;68.73
75457;SHT31;64036;48.266;14.192;2022-11-02T17:08:04;13.10;68.89
75457;SHT31;64036;48.266;14.192;2022-11-02T17:10:36;13.05;69.08
75457;SHT31;64036;48.266;14.192;2022-11-02T17:13:03;12.96;69.33
75457;SHT31;64036;48.266;14.192;2022-11-02T17:15:31;12.86;69.57
75457;SHT31;64036;48.266;14.192;2022-11-02T17:20:33;12.71;69.96
75457;SHT31;64036;48.266;14.192;2022-11-02T17:23:02;12.65;70.12
75457;SHT31;64036;48.266;14.192;2022-11-02T17:25:35;12.62;70.25
75457;SHT31;64036;48.266;14.192;2022-11-02T17:28:03;12.55;70.49
75457;SHT31;64036;48.266;14.192;2022-11-02T17:31:00;12.47;70.75
75457;SHT31;64036;48.266;14.192;2022-11-02T17:33:27;12.39;70.97
75457;SHT31;64036;48.266;14.192;2022-11-02T17:35:55;12.33;71.14
75457;SHT31;64036;48.266;14.192;2022-11-02T17:38:30;12.25;71.68
75457;SHT31;64036;48.266;14.192;2022-11-02T17:40:57;12.16;72.11
75457;SHT31;64036;48.266;14.192;2022-11-02T17:43:24;12.06;72.39
75457;SHT31;64036;48.266;14.192;2022-11-02T17:45:56;11.96;72.87
75457;SHT31;64036;48.266;14.192;2022-11-02T17:48:23;11.83;73.05
75457;SHT31;64036;48.266;14.192;2022-11-02T17:50:53;11.73;73.26
75457;SHT31;64036;48.266;14.192;2022-11-02T17:53:20;11.64;73.80
75457;SHT31;64036;48.266;14.192;2022-11-02T17:55:47;11.59;74.03
75457;SHT31;64036;48.266;14.192;2022-11-02T17:58:13;11.53;74.17
75457;SHT31;64036;48.266;14.192;2022-11-02T18:00:39;11.44;74.53
75457;SHT31;64036;48.266;14.192;2022-11-02T18:03:14;11.35;74.61
75457;SHT31;64036;48.266;14.192;2022-11-02T18:05:43;11.28;74.77
75457;SHT31;64036;48.266;14.192;2022-11-02T18:08:09;11.22;75.00
75457;SHT31;64036;48.266;14.192;2022-11-02T18:10:38;11.21;75.07
75457;SHT31;64036;48.266;14.192;2022-11-02T18:13:20;11.22;75.03
75457;SHT31;64036;48.266;14.192;2022-11-02T18:15:48;11.24;75.25
75457;SHT31;64036;48.266;14.192;2022-11-02T18:18:14;11.25;75.31
75457;SHT31;64036;48.266;14.192;2022-11-02T18:20:40;11.25;75.39
75457;SHT31;64036;48.266;14.192;2022-11-02T18:23:06;11.19;75.54
75457;SHT31;64036;48.266;14.192;2022-11-02T18:25:33;11.12;75.78
75457;SHT31;64036;48.266;14.192;2022-11-02T18:27:59;11.10;75.89
75457;SHT31;64036;48.266;14.192;2022-11-02T18:30:26;11.08;75.85
75457;SHT31;64036;48.266;14.192;2022-11-02T18:32:54;11.05;75.93
75457;SHT31;64036;48.266;14.192;2022-11-02T18:35:21;11.03;75.97
75457;SHT31;64036;48.266;14.192;2022-11-02T18:37:48;11.01;76.13
75457;SHT31;64036;48.266;14.192;2022-11-02T18:40:16;10.98;76.18
75457;SHT31;64036;48.266;14.192;2022-11-02T18:42:43;10.95;76.13
75457;SHT31;64036;48.266;14.192;2022-11-02T18:45:10;10.91;76.14
75457;SHT31;64036;48.266;14.192;2022-11-02T18:47:38;10.86;76.32
75457;SHT31;64036;48.266;14.192;2022-11-02T18:50:04;10.80;76.36
75457;SHT31;64036;48.266;14.192;2022-11-02T18:52:31;10.72;76.36
75457;SHT31;64036;48.266;14.192;2022-11-02T18:54:57;10.67;76.53
75457;SHT31;64036;48.266;14.192;2022-11-02T18:57:28;10.63;76.77
75457;SHT31;64036;48.266;14.192;2022-11-02T18:59:54;10.60;76.99
75457;SHT31;64036;48.266;14.192;2022-11-02T19:02:20;10.57;77.04
75457;SHT31;64036;48.266;14.192;2022-11-02T19:04:46;10.54;77.10
75457;SHT31;64036;48.266;14.192;2022-11-02T19:07:11;10.51;77.29